Weather History for Madisonville, KY

Change the Weather History Date:

Friday, December 6, 2013

  Actual Average (KOWB) Record (KOWB)
Temperature  
Mean Temperature 28 °F -  
Max Temperature 32 °F 48 °F 71 °F (1998)
Min Temperature 25 °F 29 °F 5 °F (1937)
Degree Days  
Heating Degree Days 36    
Moisture  
Dew Point 27 °F    
Average Humidity 96    
Maximum Humidity 99    
Minimum Humidity 89    
Precipitation  
Precipitation 0.31 in - - ()
Sea Level Pressure  
Sea Level Pressure 30.28 in    
Wind  
Wind Speed 9 mph (North)    
Max Wind Speed 14 mph    
Max Gust Speed -    
Visibility 6 miles    
Events Snow    
Averages and records for this station are not official NWS values.
T = Trace of Precipitation, MM = Missing Value Source: NWS Daily Summary

Daily Weather History Graph

Daily Weather History Graph

Search for Another Location

Airport:

Trip Planner

Search our weather history database for the weather conditions in past years. The results will help you decide how hot, cold, wet, or windy it might be!

Date:

Astronomy

Dec. 06, 2013 Rise Set
Actual Time 6:49 AM CST 4:31 PM CST
Civil Twilight 6:20 AM CST 5:00 PM CST
Nautical Twilight 5:48 AM CST 5:33 PM CST
Astronomical Twilight 5:16 AM CST 6:04 PM CST
Moon 9:58 AM CST (12/6) 8:59 PM CST (12/6)
Length of Visible Light 10h 39m
Length of Day
9h 41m
Waxing Crescent, 19% of the Moon is Illuminated
Dec 6
Waxing Crescent
Dec 9
First Quarter
Dec 17
Full
Dec 25
Last Quarter
Jan 1
New

Hourly Weather History & Observations

Time (CST) Temp. Windchill Dew Point Humidity Pressure Visibility Wind Dir Wind Speed Gust Speed Precip Events Conditions
12:15 AM 32.0 °F 24.2 °F 31.6 °F 99% 30.17 in 4.0 mi NNE 9.2 mph - 0.03 in Snow Light Snow
12:35 AM 32.0 °F 22.1 °F 30.9 °F 96% 30.14 in 7.0 mi NNE 13.8 mph - 0.03 in   Overcast
12:55 AM 32.0 °F 23.6 °F 31.1 °F 96% 30.23 in 7.0 mi North 10.4 mph - 0.03 in   Overcast
5:35 AM 30.9 °F 22.8 °F 30.2 °F 97% 30.19 in 10.0 mi North 9.2 mph - N/A   Overcast
5:55 AM 30.7 °F 22.6 °F 30.0 °F 97% 30.21 in 10.0 mi North 9.2 mph - N/A   Overcast
6:15 AM 30.2 °F 20.8 °F 29.1 °F 96% 30.19 in 10.0 mi NNE 11.5 mph - N/A   Overcast
6:35 AM 29.8 °F 21.5 °F 28.9 °F 96% 30.18 in 10.0 mi NNE 9.2 mph - N/A   Overcast
6:55 AM 30.2 °F 21.3 °F 29.3 °F 96% 30.21 in 10.0 mi NNE 10.4 mph - N/A   Overcast
7:15 AM 29.7 °F 20.7 °F 28.8 °F 96% 30.22 in 10.0 mi North 10.4 mph - N/A   Overcast
7:35 AM 29.3 °F 20.8 °F 28.4 °F 96% 30.23 in 7.0 mi North 9.2 mph - N/A   Overcast
7:55 AM 29.7 °F 20.7 °F 28.8 °F 96% 30.23 in 7.0 mi North 10.4 mph - N/A   Overcast
8:15 AM 30.0 °F 20.5 °F 29.3 °F 97% 30.23 in 4.0 mi North 11.5 mph - N/A Snow Light Snow
8:35 AM 30.2 °F 23.4 °F 29.8 °F 99% 30.23 in 2.0 mi NNE 6.9 mph - 0.01 in Snow Light Snow
8:55 AM 30.9 °F 22.8 °F 30.4 °F 98% 30.22 in 1.8 mi NNE 9.2 mph - 0.04 in Snow Light Snow
9:15 AM 31.1 °F 23.1 °F 30.6 °F 98% 30.23 in 3.0 mi NNE 9.2 mph - 0.01 in Snow Light Snow
9:35 AM 31.1 °F 21.4 °F 30.6 °F 98% 30.23 in 5.0 mi North 12.7 mph - 0.02 in Snow Light Snow
9:55 AM 31.1 °F 23.1 °F 30.7 °F 99% 30.23 in 3.0 mi NNE 9.2 mph - 0.03 in Snow Light Snow
10:15 AM 31.1 °F 23.7 °F 30.6 °F 98% 30.24 in 2.0 mi North 8.1 mph - 0.01 in Snow Light Snow
10:35 AM 30.9 °F 22.2 °F 30.2 °F 97% 30.23 in 2.5 mi North 10.4 mph - 0.03 in Snow Light Snow
10:55 AM 30.6 °F 21.2 °F 30.0 °F 98% 30.21 in 3.0 mi North 11.5 mph - 0.04 in Snow Light Snow
11:15 AM 30.2 °F 21.3 °F 29.7 °F 98% 30.20 in 3.0 mi NNE 10.4 mph - 0.01 in Snow Light Snow
11:35 AM 30.2 °F 21.9 °F 29.3 °F 96% 30.21 in 3.0 mi NNE 9.2 mph - 0.03 in Snow Light Snow
11:55 AM 30.4 °F 22.9 °F 29.7 °F 97% 30.21 in 2.5 mi North 8.1 mph - 0.04 in Snow Light Snow
12:15 PM 29.8 °F 20.3 °F 29.3 °F 98% 30.21 in 1.5 mi North 11.5 mph - 0.02 in Snow Light Snow
12:35 PM 28.6 °F 19.3 °F 27.7 °F 96% 30.21 in 1.8 mi North 10.4 mph - 0.04 in Snow Light Snow
12:55 PM 28.0 °F 19.3 °F 27.3 °F 97% 30.21 in 1.8 mi North 9.2 mph - 0.07 in Snow Light Snow
1:15 PM 27.9 °F 19.1 °F 26.8 °F 96% 30.22 in 4.0 mi North 9.2 mph - 0.01 in Snow Light Snow
1:35 PM 27.3 °F 18.4 °F 26.6 °F 97% 30.21 in 1.5 mi NNE 9.2 mph - 0.02 in Snow Light Snow
1:55 PM 27.3 °F 19.9 °F 26.6 °F 97% 30.22 in 1.0 mi North 6.9 mph - 0.03 in Snow Light Snow
2:15 PM 27.5 °F 19.3 °F 26.6 °F 96% 30.22 in 4.0 mi North 8.1 mph - N/A Snow Light Snow
2:35 PM 27.5 °F 21.1 °F 26.6 °F 96% 30.22 in 5.0 mi NNE 5.8 mph - N/A Snow Light Snow
2:55 PM 27.5 °F 20.2 °F 26.6 °F 96% 30.24 in 5.0 mi North 6.9 mph - 0.01 in Snow Light Snow
3:15 PM 27.3 °F 18.4 °F 26.2 °F 96% 30.24 in 1.5 mi North 9.2 mph - N/A Snow Light Snow
3:35 PM 27.0 °F 18.7 °F 26.2 °F 97% 30.29 in 1.0 mi North 8.1 mph - N/A Snow Light Snow
3:55 PM 27.1 °F 18.9 °F 25.9 °F 95% 30.30 in 4.0 mi North 8.1 mph - 0.01 in Snow Light Snow
4:15 PM 27.0 °F 18.7 °F 25.7 °F 95% 30.31 in 2.0 mi North 8.1 mph - N/A Snow Light Snow
4:35 PM 26.4 °F 18.9 °F 25.7 °F 97% 30.28 in 1.5 mi North 6.9 mph - N/A Snow Light Snow
4:55 PM 26.4 °F 18.9 °F 25.5 °F 96% 30.31 in 7.0 mi North 6.9 mph - 0.01 in Snow Light Snow
5:55 PM 26.6 °F 19.1 °F 25.3 °F 95% 30.33 in 10.0 mi North 6.9 mph - N/A   Overcast
6:15 PM 26.6 °F 18.2 °F 25.3 °F 95% 30.33 in 10.0 mi North 8.1 mph - N/A   Overcast
6:35 PM 26.6 °F 16.2 °F 25.3 °F 95% 30.34 in 10.0 mi North 11.5 mph - N/A   Overcast
6:55 PM 26.6 °F 16.8 °F 25.3 °F 95% 30.36 in 7.0 mi North 10.4 mph - N/A   Overcast
7:15 PM 26.6 °F 18.2 °F 25.5 °F 96% 30.37 in 2.0 mi North 8.1 mph - N/A Snow Light Snow
7:35 PM 26.6 °F 18.2 °F 25.7 °F 96% 30.37 in 3.0 mi North 8.1 mph - N/A Snow Light Snow
7:55 PM 26.8 °F 19.3 °F 25.7 °F 96% 30.38 in 10.0 mi North 6.9 mph - N/A   Overcast
8:15 PM 27.1 °F 19.7 °F 25.9 °F 95% 30.39 in 7.0 mi North 6.9 mph - N/A   Overcast
8:35 PM 27.0 °F 18.7 °F 25.9 °F 96% 30.40 in 7.0 mi North 8.1 mph - N/A   Overcast
8:55 PM 27.1 °F 19.7 °F 25.7 °F 94% 30.41 in 10.0 mi North 6.9 mph - N/A   Overcast
9:15 PM 27.0 °F 18.7 °F 25.5 °F 94% 30.41 in 10.0 mi North 8.1 mph - N/A   Overcast
9:35 PM 26.6 °F 18.2 °F 25.2 °F 94% 30.42 in 10.0 mi North 8.1 mph - N/A   Overcast
9:55 PM 26.4 °F 17.3 °F 24.8 °F 94% 30.43 in 10.0 mi North 9.2 mph - N/A   Overcast
10:15 PM 26.2 °F 17.8 °F 24.8 °F 94% 30.43 in 10.0 mi North 8.1 mph - N/A   Overcast
10:35 PM 25.7 °F 17.1 °F 24.3 °F 94% 30.44 in 10.0 mi North 8.1 mph - N/A   Overcast
10:55 PM 25.7 °F 18.0 °F 23.9 °F 93% 30.44 in 10.0 mi North 6.9 mph - N/A   Overcast
11:15 PM 25.5 °F 16.9 °F 23.9 °F 94% 30.45 in 10.0 mi North 8.1 mph - N/A   Overcast
11:35 PM 25.5 °F 17.8 °F 23.5 °F 92% 30.46 in 10.0 mi North 6.9 mph - N/A   Overcast
11:55 PM 25.2 °F 15.1 °F 22.5 °F 89% 30.47 in 10.0 mi North 10.4 mph - N/A   Overcast